Aviation Digital Data Service (ADDS)

Output produced by METARs form (2010 UTC 20 August 2019)
found at http://www.aviationweather.gov/metar/data/
 
METAR text: ORMM 202000Z 26010KT CAVOK 33/04 Q1002 NOSIG
Conditions at: ORMM (BASRAH/MAGAL , IQ) observed 2000 UTC 20 August 2019
Temperature: 33.0°C (91°F)
Dewpoint: 4.0°C (39°F) [RH = 16%]
Pressure (altimeter): 29.59 inches Hg (1002.0 mb)
Winds: from the W (260 degrees) at 12 MPH (10 knots; 5.1 m/s)
Visibility: 6 or more miles (10+ km)
Ceiling: ceiling and visibility are OK
Clouds: unknown
Weather: no significant weather observed at this time

METAR text: ORMM 201900Z 22004KT CAVOK 34/07 Q1003 NOSIG
Conditions at: ORMM (BASRAH/MAGAL , IQ) observed 1900 UTC 20 August 2019
Temperature: 34.0°C (93°F)
Dewpoint: 7.0°C (45°F) [RH = 19%]
Pressure (altimeter): 29.62 inches Hg (1003.0 mb)
Winds: from the SW (220 degrees) at 5 MPH (4 knots; 2.1 m/s)
Visibility: 6 or more miles (10+ km)
Ceiling: ceiling and visibility are OK
Clouds: unknown
Weather: no significant weather observed at this time

METAR text: ORMM 201800Z 25004KT CAVOK 35/08 Q1003 NOSIG
Conditions at: ORMM (BASRAH/MAGAL , IQ) observed 1800 UTC 20 August 2019
Temperature: 35.0°C (95°F)
Dewpoint: 8.0°C (46°F) [RH = 19%]
Pressure (altimeter): 29.62 inches Hg (1003.0 mb)
Winds: from the WSW (250 degrees) at 5 MPH (4 knots; 2.1 m/s)
Visibility: 6 or more miles (10+ km)
Ceiling: ceiling and visibility are OK
Clouds: unknown
Weather: no significant weather observed at this time

METAR text: ORMM 201700Z 26004KT CAVOK 36/08 Q1003 NOSIG
Conditions at: ORMM (BASRAH/MAGAL , IQ) observed 1700 UTC 20 August 2019
Temperature: 36.0°C (97°F)
Dewpoint: 8.0°C (46°F) [RH = 18%]
Pressure (altimeter): 29.62 inches Hg (1003.0 mb)
Winds: from the W (260 degrees) at 5 MPH (4 knots; 2.1 m/s)
Visibility: 6 or more miles (10+ km)
Ceiling: ceiling and visibility are OK
Clouds: unknown
Weather: no significant weather observed at this time

METAR text: ORMM 201600Z 29006KT CAVOK 39/07 Q1002 NOSIG
Conditions at: ORMM (BASRAH/MAGAL , IQ) observed 1600 UTC 20 August 2019
Temperature: 39.0°C (102°F)
Dewpoint: 7.0°C (45°F) [RH = 14%]
Pressure (altimeter): 29.59 inches Hg (1002.0 mb)
Winds: from the WNW (290 degrees) at 7 MPH (6 knots; 3.1 m/s)
Visibility: 6 or more miles (10+ km)
Ceiling: ceiling and visibility are OK
Clouds: unknown
Weather: no significant weather observed at this time

METAR text: ORMM 201500Z 29007KT CAVOK 43/05 Q1002 NOSIG
Conditions at: ORMM (BASRAH/MAGAL , IQ) observed 1500 UTC 20 August 2019
Temperature: 43.0°C (109°F)
Dewpoint: 5.0°C (41°F) [RH = 10%]
Pressure (altimeter): 29.59 inches Hg (1002.0 mb)
Winds: from the WNW (290 degrees) at 8 MPH (7 knots; 3.6 m/s)
Visibility: 6 or more miles (10+ km)
Ceiling: ceiling and visibility are OK
Clouds: unknown
Weather: no significant weather observed at this time

METAR text: ORMM 201400Z 31008KT CAVOK 45/08 Q1002 NOSIG
Conditions at: ORMM (BASRAH/MAGAL , IQ) observed 1400 UTC 20 August 2019
Temperature: 45.0°C (113°F)
Dewpoint: 8.0°C (46°F) [RH = 11%]
Pressure (altimeter): 29.59 inches Hg (1002.0 mb)
Winds: from the NW (310 degrees) at 9 MPH (8 knots; 4.1 m/s)
Visibility: 6 or more miles (10+ km)
Ceiling: ceiling and visibility are OK
Clouds: unknown
Weather: no significant weather observed at this time

METAR text: ORMM 201300Z 32010KT CAVOK 46/04 Q1002 NOSIG
Conditions at: ORMM (BASRAH/MAGAL , IQ) observed 1300 UTC 20 August 2019
Temperature: 46.0°C (115°F)
Dewpoint: 4.0°C (39°F) [RH =  8%]
Pressure (altimeter): 29.59 inches Hg (1002.0 mb)
Winds: from the NW (320 degrees) at 12 MPH (10 knots; 5.1 m/s)
Visibility: 6 or more miles (10+ km)
Ceiling: ceiling and visibility are OK
Clouds: unknown
Weather: no significant weather observed at this time

METAR text: ORMM 201200Z 29011KT CAVOK 46/06 Q1003 NOSIG
Conditions at: ORMM (BASRAH/MAGAL , IQ) observed 1200 UTC 20 August 2019
Temperature: 46.0°C (115°F)
Dewpoint: 6.0°C (43°F) [RH =  9%]
Pressure (altimeter): 29.62 inches Hg (1003.0 mb)
Winds: from the WNW (290 degrees) at 13 MPH (11 knots; 5.7 m/s)
Visibility: 6 or more miles (10+ km)
Ceiling: ceiling and visibility are OK
Clouds: unknown
Weather: no significant weather observed at this time

METAR text: ORMM 201100Z 33019KT CAVOK 47/07 Q1003 NOSIG
Conditions at: ORMM (BASRAH/MAGAL , IQ) observed 1100 UTC 20 August 2019
Temperature: 47.0°C (117°F)
Dewpoint: 7.0°C (45°F) [RH =  9%]
Pressure (altimeter): 29.62 inches Hg (1003.0 mb)
Winds: from the NNW (330 degrees) at 22 MPH (19 knots; 9.8 m/s)
Visibility: 6 or more miles (10+ km)
Ceiling: ceiling and visibility are OK
Clouds: unknown
Weather: no significant weather observed at this time

METAR text: ORMM 201000Z 29012KT CAVOK 47/06 Q1003 NOSIG
Conditions at: ORMM (BASRAH/MAGAL , IQ) observed 1000 UTC 20 August 2019
Temperature: 47.0°C (117°F)
Dewpoint: 6.0°C (43°F) [RH =  9%]
Pressure (altimeter): 29.62 inches Hg (1003.0 mb)
Winds: from the WNW (290 degrees) at 14 MPH (12 knots; 6.2 m/s)
Visibility: 6 or more miles (10+ km)
Ceiling: ceiling and visibility are OK
Clouds: unknown
Weather: no significant weather observed at this time

METAR text: ORMM 200900Z 33018KT CAVOK 45/09 Q1004 NOSIG
Conditions at: ORMM (BASRAH/MAGAL , IQ) observed 0900 UTC 20 August 2019
Temperature: 45.0°C (113°F)
Dewpoint: 9.0°C (48°F) [RH = 12%]
Pressure (altimeter): 29.65 inches Hg (1004.0 mb)
Winds: from the NNW (330 degrees) at 21 MPH (18 knots; 9.3 m/s)
Visibility: 6 or more miles (10+ km)
Ceiling: ceiling and visibility are OK
Clouds: unknown
Weather: no significant weather observed at this time

METAR text: ORMM 200800Z 29012KT CAVOK 45/02 Q1005 NOSIG
Conditions at: ORMM (BASRAH/MAGAL , IQ) observed 0800 UTC 20 August 2019
Temperature: 45.0°C (113°F)
Dewpoint: 2.0°C (36°F) [RH =  7%]
Pressure (altimeter): 29.68 inches Hg (1005.0 mb)
Winds: from the WNW (290 degrees) at 14 MPH (12 knots; 6.2 m/s)
Visibility: 6 or more miles (10+ km)
Ceiling: ceiling and visibility are OK
Clouds: unknown
Weather: no significant weather observed at this time

METAR text: ORMM 200700Z 29008KT CAVOK 42/07 Q1005 NOSIG
Conditions at: ORMM (BASRAH/MAGAL , IQ) observed 0700 UTC 20 August 2019
Temperature: 42.0°C (108°F)
Dewpoint: 7.0°C (45°F) [RH = 12%]
Pressure (altimeter): 29.68 inches Hg (1005.0 mb)
Winds: from the WNW (290 degrees) at 9 MPH (8 knots; 4.1 m/s)
Visibility: 6 or more miles (10+ km)
Ceiling: ceiling and visibility are OK
Clouds: unknown
Weather: no significant weather observed at this time

METAR text: ORMM 200600Z 28005KT CAVOK 38/10 Q1005 NOSIG
Conditions at: ORMM (BASRAH/MAGAL , IQ) observed 0600 UTC 20 August 2019
Temperature: 38.0°C (100°F)
Dewpoint: 10.0°C (50°F) [RH = 19%]
Pressure (altimeter): 29.68 inches Hg (1005.0 mb)
Winds: from the W (280 degrees) at 6 MPH (5 knots; 2.6 m/s)
Visibility: 6 or more miles (10+ km)
Ceiling: ceiling and visibility are OK
Clouds: unknown
Weather: no significant weather observed at this time

METAR text: ORMM 200500Z 27008KT CAVOK 36/10 Q1005 NOSIG
Conditions at: ORMM (BASRAH/MAGAL , IQ) observed 0500 UTC 20 August 2019
Temperature: 36.0°C (97°F)
Dewpoint: 10.0°C (50°F) [RH = 21%]
Pressure (altimeter): 29.68 inches Hg (1005.0 mb)
Winds: from the W (270 degrees) at 9 MPH (8 knots; 4.1 m/s)
Visibility: 6 or more miles (10+ km)
Ceiling: ceiling and visibility are OK
Clouds: unknown
Weather: no significant weather observed at this time

METAR text: ORMM 200400Z 00000KT CAVOK 31/10 Q1004 NOSIG
Conditions at: ORMM (BASRAH/MAGAL , IQ) observed 0400 UTC 20 August 2019
Temperature: 31.0°C (88°F)
Dewpoint: 10.0°C (50°F) [RH = 27%]
Pressure (altimeter): 29.65 inches Hg (1004.0 mb)
Winds: calm
Visibility: 6 or more miles (10+ km)
Ceiling: ceiling and visibility are OK
Clouds: unknown
Weather: no significant weather observed at this time

METAR text: ORMM 200300Z 26006KT CAVOK 27/10 Q1004 NOSIG
Conditions at: ORMM (BASRAH/MAGAL , IQ) observed 0300 UTC 20 August 2019
Temperature: 27.0°C (81°F)
Dewpoint: 10.0°C (50°F) [RH = 34%]
Pressure (altimeter): 29.65 inches Hg (1004.0 mb)
Winds: from the W (260 degrees) at 7 MPH (6 knots; 3.1 m/s)
Visibility: 6 or more miles (10+ km)
Ceiling: ceiling and visibility are OK
Clouds: unknown
Weather: no significant weather observed at this time

METAR text: ORMM 200200Z 25006KT CAVOK 27/10 Q1003 NOSIG
Conditions at: ORMM (BASRAH/MAGAL , IQ) observed 0200 UTC 20 August 2019
Temperature: 27.0°C (81°F)
Dewpoint: 10.0°C (50°F) [RH = 34%]
Pressure (altimeter): 29.62 inches Hg (1003.0 mb)
Winds: from the WSW (250 degrees) at 7 MPH (6 knots; 3.1 m/s)
Visibility: 6 or more miles (10+ km)
Ceiling: ceiling and visibility are OK
Clouds: unknown
Weather: no significant weather observed at this time

METAR text: ORMM 192300Z 21004KT CAVOK 28/13 Q1003 NOSIG
Conditions at: ORMM (BASRAH/MAGAL , IQ) observed 2300 UTC 19 August 2019
Temperature: 28.0°C (82°F)
Dewpoint: 13.0°C (55°F) [RH = 40%]
Pressure (altimeter): 29.62 inches Hg (1003.0 mb)
Winds: from the SSW (210 degrees) at 5 MPH (4 knots; 2.1 m/s)
Visibility: 6 or more miles (10+ km)
Ceiling: ceiling and visibility are OK
Clouds: unknown
Weather: no significant weather observed at this time

METAR text: ORMM 192200Z 28004KT CAVOK 29/13 Q1003 NOSIG
Conditions at: ORMM (BASRAH/MAGAL , IQ) observed 2200 UTC 19 August 2019
Temperature: 29.0°C (84°F)
Dewpoint: 13.0°C (55°F) [RH = 37%]
Pressure (altimeter): 29.62 inches Hg (1003.0 mb)
Winds: from the W (280 degrees) at 5 MPH (4 knots; 2.1 m/s)
Visibility: 6 or more miles (10+ km)
Ceiling: ceiling and visibility are OK
Clouds: unknown
Weather: no significant weather observed at this time

METAR text: ORMM 192100Z 27004KT CAVOK 30/13 Q1004 NOSIG
Conditions at: ORMM (BASRAH/MAGAL , IQ) observed 2100 UTC 19 August 2019
Temperature: 30.0°C (86°F)
Dewpoint: 13.0°C (55°F) [RH = 35%]
Pressure (altimeter): 29.65 inches Hg (1004.0 mb)
Winds: from the W (270 degrees) at 5 MPH (4 knots; 2.1 m/s)
Visibility: 6 or more miles (10+ km)
Ceiling: ceiling and visibility are OK
Clouds: unknown
Weather: no significant weather observed at this time

METAR text: ORMM 192000Z 26006KT CAVOK 31/14 Q1004 NOSIG
Conditions at: ORMM (BASRAH/MAGAL , IQ) observed 2000 UTC 19 August 2019
Temperature: 31.0°C (88°F)
Dewpoint: 14.0°C (57°F) [RH = 36%]
Pressure (altimeter): 29.65 inches Hg (1004.0 mb)
Winds: from the W (260 degrees) at 7 MPH (6 knots; 3.1 m/s)
Visibility: 6 or more miles (10+ km)
Ceiling: ceiling and visibility are OK
Clouds: unknown
Weather: no significant weather observed at this time

METAR text: ORMM 191900Z 27006KT CAVOK 33/13 Q1004 NOSIG
Conditions at: ORMM (BASRAH/MAGAL , IQ) observed 1900 UTC 19 August 2019
Temperature: 33.0°C (91°F)
Dewpoint: 13.0°C (55°F) [RH = 30%]
Pressure (altimeter): 29.65 inches Hg (1004.0 mb)
Winds: from the W (270 degrees) at 7 MPH (6 knots; 3.1 m/s)
Visibility: 6 or more miles (10+ km)
Ceiling: ceiling and visibility are OK
Clouds: unknown
Weather: no significant weather observed at this time

METAR text: ORMM 191800Z 27008KT CAVOK 34/10 Q1004 NOSIG
Conditions at: ORMM (BASRAH/MAGAL , IQ) observed 1800 UTC 19 August 2019
Temperature: 34.0°C (93°F)
Dewpoint: 10.0°C (50°F) [RH = 23%]
Pressure (altimeter): 29.65 inches Hg (1004.0 mb)
Winds: from the W (270 degrees) at 9 MPH (8 knots; 4.1 m/s)
Visibility: 6 or more miles (10+ km)
Ceiling: ceiling and visibility are OK
Clouds: unknown
Weather: no significant weather observed at this time

METAR text: ORMM 191700Z 28006KT CAVOK 36/09 Q1004 NOSIG
Conditions at: ORMM (BASRAH/MAGAL , IQ) observed 1700 UTC 19 August 2019
Temperature: 36.0°C (97°F)
Dewpoint: 9.0°C (48°F) [RH = 19%]
Pressure (altimeter): 29.65 inches Hg (1004.0 mb)
Winds: from the W (280 degrees) at 7 MPH (6 knots; 3.1 m/s)
Visibility: 6 or more miles (10+ km)
Ceiling: ceiling and visibility are OK
Clouds: unknown
Weather: no significant weather observed at this time

METAR text: ORMM 191600Z 28004KT CAVOK 38/07 Q1003 NOSIG
Conditions at: ORMM (BASRAH/MAGAL , IQ) observed 1600 UTC 19 August 2019
Temperature: 38.0°C (100°F)
Dewpoint: 7.0°C (45°F) [RH = 15%]
Pressure (altimeter): 29.62 inches Hg (1003.0 mb)
Winds: from the W (280 degrees) at 5 MPH (4 knots; 2.1 m/s)
Visibility: 6 or more miles (10+ km)
Ceiling: ceiling and visibility are OK
Clouds: unknown
Weather: no significant weather observed at this time

METAR text: ORMM 191500Z 28006KT CAVOK 42/07 Q1003 NOSIG
Conditions at: ORMM (BASRAH/MAGAL , IQ) observed 1500 UTC 19 August 2019
Temperature: 42.0°C (108°F)
Dewpoint: 7.0°C (45°F) [RH = 12%]
Pressure (altimeter): 29.62 inches Hg (1003.0 mb)
Winds: from the W (280 degrees) at 7 MPH (6 knots; 3.1 m/s)
Visibility: 6 or more miles (10+ km)
Ceiling: ceiling and visibility are OK
Clouds: unknown
Weather: no significant weather observed at this time

METAR text: ORMM 191400Z 30012KT CAVOK 44/07 Q1002 NOSIG
Conditions at: ORMM (BASRAH/MAGAL , IQ) observed 1400 UTC 19 August 2019
Temperature: 44.0°C (111°F)
Dewpoint: 7.0°C (45°F) [RH = 11%]
Pressure (altimeter): 29.59 inches Hg (1002.0 mb)
Winds: from the WNW (300 degrees) at 14 MPH (12 knots; 6.2 m/s)
Visibility: 6 or more miles (10+ km)
Ceiling: ceiling and visibility are OK
Clouds: unknown
Weather: no significant weather observed at this time

METAR text: ORMM 191300Z 25008KT CAVOK 44/06 Q1002 NOSIG
Conditions at: ORMM (BASRAH/MAGAL , IQ) observed 1300 UTC 19 August 2019
Temperature: 44.0°C (111°F)
Dewpoint: 6.0°C (43°F) [RH = 10%]
Pressure (altimeter): 29.59 inches Hg (1002.0 mb)
Winds: from the WSW (250 degrees) at 9 MPH (8 knots; 4.1 m/s)
Visibility: 6 or more miles (10+ km)
Ceiling: ceiling and visibility are OK
Clouds: unknown
Weather: no significant weather observed at this time

METAR text: ORMM 191200Z 32012KT CAVOK 45/09 Q1003 NOSIG
Conditions at: ORMM (BASRAH/MAGAL , IQ) observed 1200 UTC 19 August 2019
Temperature: 45.0°C (113°F)
Dewpoint: 9.0°C (48°F) [RH = 12%]
Pressure (altimeter): 29.62 inches Hg (1003.0 mb)
Winds: from the NW (320 degrees) at 14 MPH (12 knots; 6.2 m/s)
Visibility: 6 or more miles (10+ km)
Ceiling: ceiling and visibility are OK
Clouds: unknown
Weather: no significant weather observed at this time

METAR text: ORMM 191100Z 32014KT CAVOK 45/09 Q1003 NOSIG
Conditions at: ORMM (BASRAH/MAGAL , IQ) observed 1100 UTC 19 August 2019
Temperature: 45.0°C (113°F)
Dewpoint: 9.0°C (48°F) [RH = 12%]
Pressure (altimeter): 29.62 inches Hg (1003.0 mb)
Winds: from the NW (320 degrees) at 16 MPH (14 knots; 7.2 m/s)
Visibility: 6 or more miles (10+ km)
Ceiling: ceiling and visibility are OK
Clouds: unknown
Weather: no significant weather observed at this time

METAR text: ORMM 191000Z 30010KT CAVOK 45/08 Q1003 NOSIG
Conditions at: ORMM (BASRAH/MAGAL , IQ) observed 1000 UTC 19 August 2019
Temperature: 45.0°C (113°F)
Dewpoint: 8.0°C (46°F) [RH = 11%]
Pressure (altimeter): 29.62 inches Hg (1003.0 mb)
Winds: from the WNW (300 degrees) at 12 MPH (10 knots; 5.1 m/s)
Visibility: 6 or more miles (10+ km)
Ceiling: ceiling and visibility are OK
Clouds: unknown
Weather: no significant weather observed at this time

METAR text: ORMM 190900Z 32010KT CAVOK 44/08 Q1004 NOSIG
Conditions at: ORMM (BASRAH/MAGAL , IQ) observed 0900 UTC 19 August 2019
Temperature: 44.0°C (111°F)
Dewpoint: 8.0°C (46°F) [RH = 12%]
Pressure (altimeter): 29.65 inches Hg (1004.0 mb)
Winds: from the NW (320 degrees) at 12 MPH (10 knots; 5.1 m/s)
Visibility: 6 or more miles (10+ km)
Ceiling: ceiling and visibility are OK
Clouds: unknown
Weather: no significant weather observed at this time

Forecast for: ORMM (BASRAH/MAGAL , IQ)
Text: TAF ORMM 201600Z 2018/2118 29006KT CAVOK
Forecast period: 1800 UTC 20 August 2019 to 1400 UTC 21 August 2019
Forecast type: FROM: standard forecast or significant change
Winds: from the WNW (290 degrees) at 7 MPH (6 knots; 3.1 m/s)
Visibility: 6 or more miles 10+ km)
Ceiling: unknown
Clouds: missing
Weather: NSW  (no significant weather)
Text: BECMG 2114/2116 30016KT
Forecast period: 1400 to 1800 UTC 21 August 2019
Forecast type: BECOMING: Conditions expected to become as follows by 1600 UTC 21 August 2019
Winds: from the WNW (300 degrees) at 18 MPH (16 knots; 8.2 m/s)
Visibility: 6 or more miles 10+ km)
Ceiling: unknown
Clouds: missing
Weather: NSW  (no significant weather)